Latest Weather Observations for Moree

IDN60801

Issued at 8:32 pm EST Sunday 24 May 2015 (issued every 30 minutes, with the page automatically refreshed every 10 minutes)

About weather observations | Map of weather stations | Latest weather observations for NSW | Other Formats
Station Details ID: 053115 Name: MOREE AERO Lat: -29.49 Lon: 149.85 Height: 213.0 m
Data from the previous 72 hours. | See also: Recent months at Moree
Date/Time
EST
Temp
°C
App
Temp
°C
Dew
Point
Rel
Hum
%
Delta-T
°C
Wind Press
QNH
hPa
Press
MSL
hPa
Rain
since 9 am
mm
Dir
 
Spd
km/h
Gust
km/h
Spd
kts
Gust
kts
24/08:30pm 12.2 9.7 6.7 69 2.6 S 9 11 5 6 1030.0 1029.8 0.0
24/08:00pm 12.1 8.8 6.4 68 2.7 S 13 15 7 8 1029.9 1029.7 0.0
24/07:30pm 14.7 11.0 6.5 58 4.0 SSW 15 17 8 9 1029.8 1029.6 0.0
24/07:00pm 12.6 8.5 6.4 66 3.0 S 17 19 9 10 1029.6 1029.4 0.0
24/06:30pm 13.4 10.9 6.5 63 3.3 SSW 9 11 5 6 1029.6 1029.4 0.0
24/06:00pm 14.8 13.7 6.9 59 3.9 N 2 6 1 3 1029.1 1028.9 0.0
24/05:30pm 16.8 14.2 6.3 50 5.2 NE 9 9 5 5 1028.8 1028.6 0.0
24/05:00pm 18.2 15.7 6.4 46 5.9 ENE 9 11 5 6 1028.5 1028.3 0.0
24/04:30pm 20.2 17.8 5.1 37 7.5 E 7 9 4 5 1028.4 1028.2 0.0
24/04:00pm 20.2 17.3 4.7 36 7.6 SSE 9 15 5 8 1028.4 1028.2 0.0
24/03:30pm 20.6 17.3 4.6 35 7.9 SE 11 15 6 8 1028.5 1028.3 0.0
24/03:00pm 20.7 18.4 5.5 37 7.6 SE 7 15 4 8 1028.3 1028.1 0.0
24/02:30pm 20.4 17.6 5.2 37 7.5 ESE 9 15 5 8 1028.3 1028.1 0.0
24/02:00pm 20.4 18.0 4.4 35 7.8 SSE 6 15 3 8 1028.1 1027.9 0.0
24/01:30pm 20.0 17.1 4.5 36 7.6 E 9 15 5 8 1028.4 1028.2 0.0
24/01:00pm 20.1 17.0 5.7 39 7.2 SSE 11 17 6 9 1028.6 1028.4 0.0
24/12:30pm 20.0 17.5 6.4 41 6.9 NE 9 15 5 8 1028.9 1028.7 0.0
24/12:00pm 19.7 17.4 5.7 40 6.9 SE 7 11 4 6 1029.5 1029.3 0.0
24/11:30am 19.3 16.8 8.0 48 5.8 ENE 11 17 6 9 1030.0 1029.8 0.0
24/11:00am 18.4 15.6 8.7 53 5.0 E 13 19 7 10 1030.4 1030.2 0.0
24/10:30am 17.4 13.8 8.5 56 4.6 E 17 19 9 10 1030.8 1030.7 0.0
24/10:00am 16.2 12.8 9.2 63 3.6 E 17 22 9 12 1030.7 1030.6 0.0
24/09:30am 15.0 11.4 8.3 64 3.4 ESE 17 20 9 11 1030.6 1030.4 0.0
24/09:00am 13.4 9.5 8.5 72 2.5 ESE 19 24 10 13 1030.4 1030.2 0.2
24/08:30am 11.6 8.7 8.1 79 1.7 E 13 15 7 8 1030.4 1030.2 0.2
24/08:00am 10.0 6.9 7.3 83 1.3 E 13 17 7 9 1030.1 1029.9 0.2
24/07:30am 8.9 5.3 6.7 86 1.0 E 15 19 8 10 1029.9 1029.7 0.2
24/07:00am 7.6 3.4 5.9 89 0.8 E 17 20 9 11 1029.7 1029.5 0.2
24/06:30am 7.6 3.9 6.1 90 0.7 ENE 15 17 8 9 1029.5 1029.3 0.2
24/05:30am 8.1 5.2 6.4 89 0.8 E 11 13 6 7 1028.8 1028.6 0.2
24/05:00am 8.5 5.2 6.6 88 0.9 ENE 13 15 7 8 1028.6 1028.4 0.2
24/04:30am 8.6 5.0 6.7 88 0.9 E 15 17 8 9 1028.2 1028.0 0.2
24/04:00am 9.0 5.1 7.0 87 0.9 E 17 19 9 10 1027.9 1027.7 0.2
24/03:30am 9.6 6.1 7.0 84 1.2 E 15 19 8 10 1027.8 1027.6 0.2
24/03:00am 10.7 7.0 7.9 83 1.4 E 17 20 9 11 1027.8 1027.6 0.2
24/02:30am 10.5 7.2 7.9 84 1.3 E 15 20 8 11 1027.7 1027.5 0.2
24/02:00am 10.1 6.3 7.7 85 1.2 E 17 20 9 11 1027.6 1027.4 0.2
24/01:30am 10.4 6.7 7.8 84 1.3 E 17 22 9 12 1027.5 1027.3 0.2
24/01:00am 11.3 8.5 8.5 83 1.4 E 13 17 7 9 1027.5 1027.3 0.2
24/12:30am 10.8 5.5 8.6 86 1.1 ESE 26 37 14 20 1027.3 1027.1 0.2
24/12:00am 10.9 6.9 8.3 84 1.3 ESE 19 22 10 12 1027.4 1027.2 0.2
 
Date/Time
EST
Temp
°C
App
Temp
°C
Dew
Point
Rel
Hum
%
Delta-T
°C
Wind Press
QNH
hPa
Press
MSL
hPa
Rain
since 9 am
mm
Dir
 
Spd
km/h
Gust
km/h
Spd
kts
Gust
kts
23/11:30pm 11.3 7.7 8.5 83 1.4 ESE 17 20 9 11 1027.4 1027.2 0.2
23/11:00pm 11.8 8.4 9.2 84 1.3 SE 17 22 9 12 1027.3 1027.1 0.2
23/10:30pm 10.6 8.1 8.0 84 1.3 ESE 11 15 6 8 1027.1 1026.9 0.2
23/10:00pm 11.2 9.2 8.8 85 1.2 SE 9 11 5 6 1027.2 1027.0 0.2
23/09:30pm 10.8 10.1 8.6 86 1.1 S 2 7 1 4 1027.3 1027.1 0.2
23/09:00pm 10.5 8.0 8.4 87 1.0 SSE 11 11 6 6 1027.1 1026.9 0.2
23/08:30pm 10.7 7.8 8.3 85 1.2 S 13 15 7 8 1026.9 1026.7 0.2
23/08:00pm 11.8 9.9 9.0 83 1.4 SSW 9 11 5 6 1026.7 1026.4 0.2
23/07:30pm 12.2 10.3 8.9 80 1.7 SSW 9 11 5 6 1026.5 1026.2 0.2
23/07:00pm 12.6 9.8 8.7 77 2.0 SSW 13 15 7 8 1026.1 1025.9 0.2
23/06:30pm 13.9 10.9 9.1 73 2.5 SW 15 17 8 9 1026.0 1025.8 0.2
23/06:00pm 14.8 12.2 9.2 69 2.9 SW 13 17 7 9 1025.8 1025.6 0.2
23/05:30pm 15.1 12.0 9.0 67 3.2 SW 15 17 8 9 1025.6 1025.4 0.2
23/05:00pm 16.9 13.8 8.8 59 4.2 SSW 15 19 8 10 1025.5 1025.3 0.2
23/04:30pm 18.7 15.0 8.1 50 5.5 SSW 17 20 9 11 1025.3 1025.1 0.2
23/04:00pm 19.6 15.6 6.7 43 6.5 S 17 20 9 11 1025.4 1025.2 0.2
23/03:30pm 19.8 16.1 7.9 46 6.2 SSE 17 24 9 13 1025.2 1025.0 0.2
23/03:00pm 19.8 15.9 6.9 43 6.6 S 17 24 9 13 1025.1 1024.9 0.2
23/02:30pm 19.9 16.8 7.3 44 6.5 S 13 17 7 9 1025.2 1025.0 0.2
23/02:00pm 19.4 16.1 6.5 43 6.5 S 13 24 7 13 1025.3 1025.1 0.2
23/01:30pm 19.1 15.3 7.5 47 6.0 SSE 17 28 9 15 1025.6 1025.4 0.2
23/01:00pm 18.4 14.8 6.6 46 5.9 SSE 15 22 8 12 1025.8 1025.6 0.2
23/12:30pm 18.4 14.5 7.2 48 5.7 SE 17 26 9 14 1026.3 1026.0 0.2
23/12:00pm 17.8 14.0 6.0 46 5.8 SE 15 20 8 11 1026.7 1026.4 0.0
23/11:30am 17.5 12.2 7.0 50 5.3 SSE 24 35 13 19 1027.1 1026.9 0.0
23/11:00am 17.3 12.5 7.4 52 5.0 SE 22 28 12 15 1027.3 1027.1 0.0
23/10:30am 16.8 11.3 7.4 54 4.8 SE 26 30 14 16 1027.5 1027.3 0.0
23/10:00am 15.8 11.2 6.5 54 4.6 SE 20 28 11 15 1027.6 1027.4 0.0
23/09:30am 14.9 11.3 8.2 64 3.4 SSE 17 20 9 11 1027.4 1027.2 0.0
23/09:00am 13.3 10.0 9.5 78 1.9 S 17 20 9 11 1027.1 1026.9 0.0
23/08:30am 11.1 7.6 8.7 85 1.2 S 17 24 9 13 1026.8 1026.6 0.0
23/08:00am 9.5 6.2 7.9 90 0.8 S 15 19 8 10 1026.7 1026.4 0.0
23/07:30am 7.9 4.7 6.7 92 0.6 SSW 13 15 7 8 1026.4 1026.1 0.0
23/07:00am 7.0 4.0 6.1 94 0.4 SSW 11 13 6 7 1025.9 1025.7 0.0
23/06:30am 6.5 3.4 5.6 94 0.4 SSW 11 15 6 8 1025.6 1025.4 0.0
23/06:00am 6.6 3.1 5.6 93 0.4 SSW 13 15 7 8 1025.1 1024.9 0.0
23/05:30am 7.2 3.8 6.1 93 0.5 SW 13 15 7 8 1024.6 1024.4 0.0
23/05:00am 7.5 5.3 6.3 92 0.5 SW 7 9 4 5 1024.3 1024.1 0.0
23/04:30am 8.0 4.3 6.5 90 0.7 SW 15 15 8 8 1024.1 1023.9 0.0
23/04:00am 7.9 3.8 6.4 90 0.7 SW 17 17 9 9 1023.9 1023.7 0.0
23/03:30am 8.2 5.7 6.7 90 0.7 SW 9 11 5 6 1023.5 1023.3 0.0
23/03:00am 8.2 5.3 6.5 89 0.8 SSW 11 13 6 7 1023.6 1023.4 0.0
23/02:30am 8.6 5.4 6.9 89 0.8 SSW 13 15 7 8 1023.6 1023.4 0.0
23/02:00am 8.8 5.7 7.1 89 0.8 S 13 15 7 8 1023.6 1023.4 0.0
23/01:30am 9.3 5.8 7.3 87 1.0 S 15 17 8 9 1023.6 1023.4 0.0
23/01:00am 9.8 5.6 7.6 86 1.1 S 19 24 10 13 1023.7 1023.5 0.0
23/12:30am 10.6 7.3 8.0 84 1.3 SSW 15 17 8 9 1023.7 1023.5 0.0
23/12:00am 10.7 7.4 7.9 83 1.4 SSW 15 19 8 10 1023.9 1023.7 0.0
 
Date/Time
EST
Temp
°C
App
Temp
°C
Dew
Point
Rel
Hum
%
Delta-T
°C
Wind Press
QNH
hPa
Press
MSL
hPa
Rain
since 9 am
mm
Dir
 
Spd
km/h
Gust
km/h
Spd
kts
Gust
kts
22/11:30pm 10.9 7.3 8.3 84 1.3 S 17 19 9 10 1023.9 1023.7 0.0
22/11:00pm 10.7 7.5 8.3 85 1.2 S 15 19 8 10 1023.8 1023.6 0.0
22/10:30pm 11.9 8.4 8.9 82 1.5 SSW 17 20 9 11 1023.5 1023.3 0.0
22/10:00pm 12.5 8.6 9.5 82 1.5 SSW 20 28 11 15 1023.7 1023.5 0.0
22/09:30pm 11.7 8.1 9.9 89 0.9 SW 19 24 10 13 1023.6 1023.4 0.0
22/09:00pm 12.0 8.5 10.2 89 0.9 SW 19 22 10 12 1023.6 1023.4 0.0
22/08:30pm 12.7 9.6 10.4 86 1.2 SW 17 20 9 11 1023.6 1023.4 0.0
22/08:00pm 12.3 9.6 10.2 87 1.1 SW 15 19 8 10 1023.3 1023.1 0.0
22/07:30pm 12.1 8.5 10.0 87 1.1 WSW 19 24 10 13 1022.6 1022.3 0.0
22/07:00pm 12.3 8.7 10.0 86 1.2 WSW 19 22 10 12 1022.3 1022.0 0.0
22/06:30pm 12.5 8.7 9.9 84 1.3 WSW 20 26 11 14 1021.9 1021.6 0.0
22/06:00pm 12.8 8.6 9.8 82 1.5 WSW 22 28 12 15 1021.7 1021.4 0.0
22/05:30pm 13.3 8.9 10.3 82 1.6 WSW 24 30 13 16 1021.0 1020.8 0.0
22/05:00pm 14.1 9.3 10.3 78 2.0 WSW 26 32 14 17 1021.3 1021.1 0.0
22/04:30pm 14.5 9.8 10.5 77 2.1 WSW 26 35 14 19 1021.1 1020.9 0.0
22/04:00pm 14.8 9.6 10.4 75 2.3 WSW 28 33 15 18 1020.9 1020.7 0.0
22/03:30pm 14.9 10.6 10.9 77 2.1 SW 24 30 13 16 1020.7 1020.5 0.0
22/03:00pm 14.8 10.3 10.2 74 2.4 WSW 24 30 13 16 1020.4 1020.2 0.0
22/02:30pm 14.9 9.7 10.3 74 2.4 WSW 28 35 15 19 1020.1 1019.9 0.0
22/02:00pm 14.2 9.4 10.2 77 2.1 W 26 32 14 17 1019.8 1019.6 0.0
22/01:30pm 13.5 7.8 9.7 78 2.0 SW 30 35 16 19 1020.0 1019.8 0.0
22/01:00pm 14.0 8.7 10.0 77 2.1 WSW 28 33 15 18 1019.9 1019.7 0.0
22/12:30pm 13.6 9.2 10.4 81 1.7 WSW 24 28 13 15 1020.0 1019.8 0.0
22/12:09pm 13.1 9.3 11.0 87 1.1 WSW 22 28 12 15 1020.1 1019.9 0.0
22/12:08pm 13.1 9.7 11.2 88 1.0 WSW 20 28 11 15 1020.0 1019.8 0.0
22/12:00pm 12.5 8.7 11.1 91 0.7 WSW 22 32 12 17 1020.1 1019.9 0.0
22/11:57am 12.3 7.6 10.7 90 0.8 WSW 26 32 14 17 1020.2 1020.0 0.0
22/11:53am 12.3 7.9 10.4 88 1.0 WSW 24 32 13 17 1020.2 1020.0 0.0
22/11:30am 13.1 8.7 10.3 83 1.5 WSW 24 30 13 16 1020.4 1020.2 0.0
22/11:00am 13.0 8.6 10.4 84 1.4 SW 24 32 13 17 1020.5 1020.3 0.0
22/10:41am 13.2 9.2 10.4 83 1.5 WSW 22 30 12 16 1020.5 1020.3 0.0
22/10:30am 12.9 8.5 10.4 85 1.3 WSW 24 32 13 17 1020.5 1020.3 0.0
22/10:00am 12.0 8.3 10.2 89 0.9 W 20 26 11 14 1020.5 1020.3 0.0
22/09:30am 12.2 7.7 9.9 86 1.2 W 24 30 13 16 1020.2 1020.0 0.0
22/09:00am 11.5 7.8 10.1 91 0.7 W 20 26 11 14 1020.2 1020.0 6.6
22/08:38am 11.1 6.9 9.9 92 0.6 W 22 28 12 15 1020.1 1019.9 6.6
22/08:30am 11.1 7.4 10.2 94 0.5 W 20 26 11 14 1020.0 1019.8 6.6
22/08:13am 10.9 7.3 9.7 92 0.6 W 19 24 10 13 1020.0 1019.8 6.4
22/08:04am 11.2 7.5 9.6 90 0.8 W 19 26 10 14 1019.8 1019.6 6.4
22/08:00am 11.3 7.4 9.6 89 0.9 W 20 26 11 14 1019.8 1019.6 6.4
22/07:30am 11.1 7.4 9.5 90 0.8 W 19 24 10 13 1019.7 1019.5 6.4
22/07:19am 11.0 7.3 9.6 91 0.7 W 19 24 10 13 1019.5 1019.3 6.4
22/07:05am 10.9 8.0 9.5 91 0.7 W 15 19 8 10 1019.4 1019.2 6.4
22/07:00am 10.9 7.5 9.3 90 0.8 W 17 22 9 12 1019.3 1019.1 6.4
22/06:55am 10.9 7.6 9.5 91 0.7 W 17 22 9 12 1019.3 1019.1 6.4
22/06:30am 10.8 6.1 9.2 90 0.8 W 24 32 13 17 1019.0 1018.8 6.4
22/06:03am 10.9 7.0 9.5 91 0.7 W 20 28 11 15 1018.6 1018.3 6.4
22/06:00am 10.9 6.6 9.5 91 0.7 W 22 30 12 16 1018.6 1018.3 6.4
22/05:30am 11.2 7.3 9.6 90 0.8 W 20 28 11 15 1018.3 1018.0 6.4
22/05:00am 11.0 7.8 9.9 93 0.6 W 17 20 9 11 1018.1 1017.8 6.4
22/04:55am 11.0 7.4 9.9 93 0.6 W 19 26 10 14 1018.1 1017.8 6.4
22/04:30am 11.4 8.4 10.5 94 0.5 W 17 22 9 12 1018.1 1017.8 6.4
22/04:24am 11.4 8.4 10.5 94 0.5 W 17 24 9 13 1018.1 1017.8 6.4
22/04:11am 11.2 8.5 10.3 94 0.5 WNW 15 17 8 9 1018.1 1017.8 6.4
22/04:05am 11.2 8.9 10.3 94 0.5 WNW 13 17 7 9 1018.2 1017.9 6.2
22/04:00am 11.2 8.9 10.3 94 0.5 NW 13 17 7 9 1018.2 1017.9 5.0
22/03:59am 11.2 8.9 10.3 94 0.5 NW 13 17 7 9 1018.2 1017.9 5.0
22/03:30am 11.4 9.1 10.3 93 0.6 WNW 13 17 7 9 1018.3 1018.0 4.6
22/03:00am 11.3 9.3 10.2 93 0.6 NW 11 13 6 7 1018.4 1018.1 4.6
22/02:30am 11.1 8.7 10.0 93 0.6 NW 13 17 7 9 1018.6 1018.3 4.6
22/02:28am 11.1 8.7 10.0 93 0.6 NW 13 17 7 9 1018.6 1018.3 4.6
22/02:00am 10.9 9.3 10.1 95 0.4 NW 9 13 5 7 1018.6 1018.3 4.6
22/01:30am 10.6 8.5 9.8 95 0.4 WNW 11 11 6 6 1018.7 1018.4 4.6
22/01:00am 10.9 8.9 10.1 95 0.4 NW 11 13 6 7 1019.1 1018.9 4.6
22/12:30am 11.2 8.9 10.3 94 0.5 NW 13 19 7 10 1019.4 1019.2 4.6
22/12:00am 11.2 8.9 10.3 94 0.5 ENE 13 19 7 10 1018.7 1018.4 4.6
 
Date/Time
EST
Temp
°C
App
Temp
°C
Dew
Point
Rel
Hum
%
Delta-T
°C
Wind Press
QNH
hPa
Press
MSL
hPa
Rain
since 9 am
mm
Dir
 
Spd
km/h
Gust
km/h
Spd
kts
Gust
kts
21/11:30pm 11.3 10.3 10.4 94 0.5 NE 6 7 3 4 1019.2 1019.0 4.6
21/11:00pm 11.2 10.2 10.3 94 0.5 SW 6 9 3 5 1019.4 1019.2 4.4
21/10:30pm 11.1 9.1 10.2 94 0.5 W 11 13 6 7 1019.9 1019.7 4.4
21/10:00pm 11.3 8.6 10.4 94 0.5 WSW 15 19 8 10 1020.2 1020.0 4.4
21/09:30pm 11.2 8.1 10.3 94 0.5 WSW 17 20 9 11 1019.9 1019.7 4.4
21/09:12pm 11.1 7.4 10.2 94 0.5 SW 20 28 11 15 1020.1 1019.9 4.4
21/09:00pm 11.1 5.8 10.0 93 0.6 SW 28 43 15 23 1020.1 1019.9 4.0
21/08:55pm 11.1 3.7 9.9 92 0.6 WSW 39 57 21 31 1020.3 1020.1 3.6
21/08:47pm 11.8 4.0 9.9 88 1.0 W 41 57 22 31 1020.3 1020.1 1.4
21/08:41pm 12.8 9.1 10.2 84 1.4 NW 20 56 11 30 1019.9 1019.7 0.0

Other Formats:

Comma delimited format used in spreadsheet applications
http://www.bom.gov.au/fwo/IDN60801/IDN60801.95527.axf

JavaScript Object Notation format (JSON) in row-major order
http://www.bom.gov.au/fwo/IDN60801/IDN60801.95527.json